createdAt,value
2022-12-12T00:01:04.683Z,-1.73
2022-12-12T00:03:54.013Z,-1.74
2022-12-12T00:06:41.998Z,-1.75
2022-12-12T00:09:30.006Z,-1.75
2022-12-12T00:12:17.988Z,-1.76
2022-12-12T00:15:06.748Z,-1.77
2022-12-12T00:17:56.345Z,-1.76
2022-12-12T00:20:44.101Z,-1.76
2022-12-12T00:23:32.165Z,-1.77
2022-12-12T00:26:24.495Z,-1.76
2022-12-12T00:29:12.791Z,-1.78
2022-12-12T00:32:00.819Z,-1.78
2022-12-12T00:34:50.319Z,-1.81
2022-12-12T00:37:38.423Z,-1.83
2022-12-12T00:40:26.478Z,-1.82
2022-12-12T00:43:14.583Z,-1.81
2022-12-12T00:46:03.163Z,-1.80
2022-12-12T00:48:51.078Z,-1.80
2022-12-12T00:51:40.271Z,-1.79
2022-12-12T00:54:28.104Z,-1.80
2022-12-12T00:57:16.056Z,-1.83
2022-12-12T01:00:04.575Z,-1.82
2022-12-12T01:02:52.788Z,-1.83
2022-12-12T01:05:40.596Z,-1.81
2022-12-12T01:08:29.879Z,-1.83
2022-12-12T01:11:19.060Z,-1.83
2022-12-12T01:14:07.640Z,-1.84
2022-12-12T01:16:55.404Z,-1.84
2022-12-12T01:19:43.487Z,-1.85
2022-12-12T01:22:31.531Z,-1.86
2022-12-12T01:25:21.624Z,-1.85
2022-12-12T01:28:10.202Z,-1.87
2022-12-12T01:30:58.367Z,-1.86
2022-12-12T01:33:47.143Z,-1.86
2022-12-12T01:36:35.282Z,-1.84
2022-12-12T01:39:23.147Z,-1.85
2022-12-12T01:42:15.450Z,-1.85
2022-12-12T01:45:03.783Z,-1.85
2022-12-12T01:47:51.499Z,-1.86
2022-12-12T01:50:40.342Z,-1.87
2022-12-12T01:53:30.735Z,-1.87
2022-12-12T01:56:22.448Z,-1.88
2022-12-12T01:59:16.590Z,-1.88
2022-12-12T02:02:07.663Z,-1.87
2022-12-12T02:04:55.976Z,-1.88
2022-12-12T02:07:44.059Z,-1.88
2022-12-12T02:10:32.266Z,-1.88
2022-12-12T02:13:25.289Z,-1.87
2022-12-12T02:16:26.136Z,-1.86
2022-12-12T02:19:37.255Z,-1.87
2022-12-12T02:22:38.277Z,-1.88
2022-12-12T02:25:49.828Z,-1.88
2022-12-12T02:29:00.780Z,-1.87
2022-12-12T02:31:55.047Z,-1.87
2022-12-12T02:34:50.344Z,-1.86
2022-12-12T02:37:46.721Z,-1.87
2022-12-12T02:40:41.503Z,-1.87
2022-12-12T02:43:35.818Z,-1.89
2022-12-12T02:46:33.986Z,-1.88
2022-12-12T02:49:28.116Z,-1.88
2022-12-12T02:52:20.103Z,-1.86
2022-12-12T02:55:08.930Z,-1.87
2022-12-12T02:57:57.235Z,-1.87
2022-12-12T03:01:11.564Z,-1.87
2022-12-12T03:04:22.313Z,-1.86
2022-12-12T03:07:38.099Z,-1.88
2022-12-12T03:10:44.000Z,-1.88
2022-12-12T03:13:56.418Z,-1.88
2022-12-12T03:16:50.873Z,-1.88
2022-12-12T03:19:43.605Z,-1.88
2022-12-12T03:22:41.690Z,-1.90
2022-12-12T03:25:36.727Z,-1.89
2022-12-12T03:28:47.226Z,-1.89
2022-12-12T03:31:41.470Z,-1.90
2022-12-12T03:34:35.406Z,-1.91
2022-12-12T03:37:26.815Z,-1.90
2022-12-12T03:40:20.606Z,-1.90
2022-12-12T03:43:15.848Z,-1.91
2022-12-12T03:46:10.773Z,-1.91
2022-12-12T03:49:04.828Z,-1.90
2022-12-12T03:52:00.100Z,-1.91
2022-12-12T03:54:53.240Z,-1.91
2022-12-12T03:58:07.904Z,-1.92
2022-12-12T04:01:00.404Z,-1.91
2022-12-12T04:03:57.927Z,-1.92
2022-12-12T04:06:51.700Z,-1.92
2022-12-12T04:09:57.383Z,-1.92
2022-12-12T04:13:03.367Z,-1.94
2022-12-12T04:16:05.338Z,-1.96
2022-12-12T04:18:59.368Z,-1.96
2022-12-12T04:22:15.375Z,-1.98
2022-12-12T04:25:10.925Z,-1.99
2022-12-12T04:28:06.116Z,-1.99
2022-12-12T04:30:54.410Z,-2.00
2022-12-12T04:33:51.948Z,-2.00
2022-12-12T04:36:42.236Z,-2.00
2022-12-12T04:39:31.580Z,-2.01
2022-12-12T04:42:24.738Z,-2.02
2022-12-12T04:45:16.727Z,-2.02
2022-12-12T04:48:06.971Z,-2.02
2022-12-12T04:50:56.871Z,-2.02
2022-12-12T04:53:49.778Z,-2.05
2022-12-12T04:56:43.805Z,-2.05
2022-12-12T04:59:32.288Z,-2.07
2022-12-12T05:02:32.283Z,-2.07
2022-12-12T05:05:26.198Z,-2.10
2022-12-12T05:08:21.016Z,-2.11
2022-12-12T05:11:09.473Z,-2.12
2022-12-12T05:13:57.197Z,-2.12
2022-12-12T05:16:48.586Z,-2.13
2022-12-12T05:19:37.892Z,-2.14
2022-12-12T05:22:26.120Z,-2.15
2022-12-12T05:25:14.802Z,-2.18
2022-12-12T05:28:02.719Z,-2.19
2022-12-12T05:30:53.261Z,-2.21
2022-12-12T05:33:41.336Z,-2.25
2022-12-12T05:36:30.842Z,-2.29
2022-12-12T05:39:19.168Z,-2.32
2022-12-12T05:42:07.131Z,-2.35
2022-12-12T05:44:55.186Z,-2.40
2022-12-12T05:47:50.626Z,-2.43
2022-12-12T05:50:38.668Z,-2.48
2022-12-12T05:53:27.827Z,-2.53
2022-12-12T05:56:15.834Z,-2.58
2022-12-12T05:59:03.451Z,-2.63
2022-12-12T06:02:06.432Z,-2.68
2022-12-12T06:04:54.736Z,-2.73
2022-12-12T06:07:42.676Z,-2.80
2022-12-12T06:10:32.103Z,-2.85
2022-12-12T06:13:19.755Z,-2.89
2022-12-12T06:16:08.949Z,-2.92
2022-12-12T06:18:57.723Z,-2.97
2022-12-12T06:21:50.788Z,-3.00
2022-12-12T06:24:38.676Z,-3.05
2022-12-12T06:27:28.128Z,-3.10
2022-12-12T06:30:16.279Z,-3.13
2022-12-12T06:33:04.276Z,-3.16
2022-12-12T06:36:00.409Z,-3.20
2022-12-12T06:38:48.549Z,-3.24
2022-12-12T06:41:36.548Z,-3.29
2022-12-12T06:44:25.781Z,-3.32
2022-12-12T06:47:13.596Z,-3.37
2022-12-12T06:50:04.604Z,-3.40
2022-12-12T06:52:52.798Z,-3.43
2022-12-12T06:55:43.811Z,-3.47
2022-12-12T06:58:31.917Z,-3.49
2022-12-12T07:01:25.113Z,-3.52
2022-12-12T07:04:14.394Z,-3.56
2022-12-12T07:07:02.488Z,-3.57
2022-12-12T07:10:23.709Z,-3.61
2022-12-12T07:13:11.724Z,-3.63
2022-12-12T07:15:59.755Z,-3.63
2022-12-12T07:18:52.068Z,-3.64
2022-12-12T07:21:40.362Z,-3.67
2022-12-12T07:24:28.505Z,-3.69
2022-12-12T07:27:21.806Z,-3.71
2022-12-12T07:30:12.412Z,-3.70
2022-12-12T07:33:15.808Z,-3.69
2022-12-12T07:36:06.247Z,-3.70
2022-12-12T07:38:59.836Z,-3.72
2022-12-12T07:41:47.864Z,-3.70
2022-12-12T07:46:03.617Z,-3.69
2022-12-12T07:49:49.784Z,-3.67
2022-12-12T07:52:42.872Z,-3.65
2022-12-12T07:55:32.907Z,-3.63
2022-12-12T07:58:20.874Z,-3.62
2022-12-12T08:01:15.066Z,-3.61
2022-12-12T08:04:06.395Z,-3.60
2022-12-12T08:07:01.678Z,-3.57
2022-12-12T08:10:01.342Z,-3.55
2022-12-12T08:12:49.450Z,-3.55
2022-12-12T08:15:37.578Z,-3.55
2022-12-12T08:18:25.479Z,-3.53
2022-12-12T08:21:23.213Z,-3.51
2022-12-12T08:24:15.279Z,-3.51
2022-12-12T08:27:05.142Z,-3.50
2022-12-12T08:29:53.738Z,-3.49
2022-12-12T08:32:41.863Z,-3.49
2022-12-12T08:35:32.548Z,-3.48
2022-12-12T08:38:20.487Z,-3.48
2022-12-12T08:41:09.820Z,-3.46
2022-12-12T08:43:59.325Z,-3.46
2022-12-12T08:46:47.216Z,-3.44
2022-12-12T08:49:36.295Z,-3.41
2022-12-12T08:52:24.376Z,-3.39
2022-12-12T08:55:12.314Z,-3.36
2022-12-12T08:58:00.130Z,-3.36
2022-12-12T09:00:49.457Z,-3.33
2022-12-12T09:03:37.196Z,-3.30
2022-12-12T09:06:27.136Z,-3.28
2022-12-12T09:09:15.341Z,-3.23
2022-12-12T09:12:03.649Z,-3.16
2022-12-12T09:14:51.944Z,-3.04
2022-12-12T09:17:41.211Z,-2.95
2022-12-12T09:20:29.181Z,-2.84
2022-12-12T09:23:17.483Z,-2.79
2022-12-12T09:26:09.673Z,-2.78
2022-12-12T09:28:57.618Z,-2.68
2022-12-12T09:31:45.503Z,-2.58
2022-12-12T09:34:35.174Z,-2.51
2022-12-12T09:37:23.368Z,-2.41
2022-12-12T09:40:19.016Z,-2.30
2022-12-12T09:43:07.462Z,-2.19
2022-12-12T09:45:55.584Z,-2.07
2022-12-12T09:48:46.378Z,-1.96
2022-12-12T09:51:37.553Z,-1.86
2022-12-12T09:54:27.837Z,-1.81
2022-12-12T10:00:59.943Z,-1.66
2022-12-12T10:03:57.306Z,-1.52
2022-12-12T10:06:52.208Z,-1.42
2022-12-12T10:09:54.135Z,-1.35
2022-12-12T10:12:42.412Z,-1.19
2022-12-12T10:15:36.431Z,-0.97
2022-12-12T10:18:29.893Z,-0.90
2022-12-12T10:21:22.893Z,-0.81
2022-12-12T10:24:24.743Z,-0.68
2022-12-12T10:27:18.290Z,-0.51
2022-12-12T10:30:16.934Z,-0.39
2022-12-12T10:33:17.607Z,-0.21
2022-12-12T10:36:16.885Z,-0.10
2022-12-12T10:39:17.576Z,0.06
2022-12-12T10:42:14.022Z,0.22
2022-12-12T10:45:24.709Z,0.41
2022-12-12T10:48:12.960Z,0.58
2022-12-12T10:51:04.495Z,0.74
2022-12-12T10:53:55.429Z,0.88
2022-12-12T10:57:06.129Z,1.03
2022-12-12T10:59:58.548Z,1.13
2022-12-12T11:02:48.850Z,1.21
2022-12-12T11:05:40.770Z,1.32
2022-12-12T11:08:33.543Z,1.42
2022-12-12T11:11:23.566Z,1.51
2022-12-12T11:14:28.383Z,1.65
2022-12-12T11:17:28.071Z,1.71
2022-12-12T11:20:20.362Z,1.69
2022-12-12T11:23:18.473Z,1.69
2022-12-12T11:26:13.351Z,1.66
2022-12-12T11:29:07.809Z,1.60
2022-12-12T11:31:57.370Z,1.53
2022-12-12T11:34:50.387Z,1.47
2022-12-12T11:37:40.416Z,1.40
2022-12-12T11:40:41.955Z,1.33
2022-12-12T11:43:31.614Z,1.23
2022-12-12T11:46:23.104Z,1.18
2022-12-12T11:49:21.018Z,1.11
2022-12-12T11:52:21.396Z,1.05
2022-12-12T11:55:16.006Z,0.99
2022-12-12T11:58:21.398Z,0.93
2022-12-12T12:01:16.966Z,0.88
2022-12-12T12:04:26.760Z,0.82
2022-12-12T12:07:31.995Z,0.76
2022-12-12T12:10:40.731Z,0.70
2022-12-12T12:13:50.016Z,0.66
2022-12-12T12:16:49.861Z,0.61
2022-12-12T12:19:46.502Z,0.57
2022-12-12T12:22:48.795Z,0.54
2022-12-12T12:25:45.265Z,0.50
2022-12-12T12:28:59.100Z,0.46
2022-12-12T12:31:58.713Z,0.44
2022-12-12T12:35:00.570Z,0.40
2022-12-12T12:38:07.052Z,0.38
2022-12-12T12:41:22.420Z,0.37
2022-12-12T12:44:23.873Z,0.34
2022-12-12T12:47:22.964Z,0.31
2022-12-12T12:50:22.739Z,0.29
2022-12-12T12:53:26.750Z,0.28
2022-12-12T12:56:26.926Z,0.25
2022-12-12T12:59:19.467Z,0.24
2022-12-12T13:02:26.949Z,0.21
2022-12-12T13:05:21.854Z,0.19
2022-12-12T13:08:21.043Z,0.18
2022-12-12T13:11:11.712Z,0.15
2022-12-12T13:14:10.819Z,0.13
2022-12-12T13:17:06.377Z,0.10
2022-12-12T13:19:57.498Z,0.08
2022-12-12T13:22:58.435Z,0.07
2022-12-12T13:25:55.510Z,0.07
2022-12-12T13:28:48.693Z,0.04
2022-12-12T13:32:01.771Z,0.03
2022-12-12T13:34:52.558Z,0.02
2022-12-12T13:37:48.848Z,0.03
2022-12-12T13:40:42.414Z,0.02
2022-12-12T13:43:42.443Z,0.04
2022-12-12T13:46:43.139Z,0.05
2022-12-12T13:49:40.332Z,0.08
2022-12-12T13:52:33.250Z,0.10
2022-12-12T13:55:23.645Z,0.07
2022-12-12T13:58:32.569Z,0.11
2022-12-12T14:01:40.469Z,0.10
2022-12-12T14:04:30.888Z,0.14
2022-12-12T14:07:23.739Z,0.11
2022-12-12T14:10:25.978Z,0.09
2022-12-12T14:13:19.514Z,0.12
2022-12-12T14:16:08.833Z,0.13
2022-12-12T14:19:08.741Z,0.14
2022-12-12T14:21:57.148Z,0.15
2022-12-12T14:24:59.410Z,0.16
2022-12-12T14:28:19.168Z,0.16
2022-12-12T14:31:15.927Z,0.15
2022-12-12T14:34:17.518Z,0.14
2022-12-12T14:37:37.388Z,0.13
2022-12-12T14:40:30.658Z,0.11
2022-12-12T14:43:25.360Z,0.04
2022-12-12T14:46:17.333Z,-0.01
2022-12-12T14:49:06.816Z,-0.07
2022-12-12T14:51:58.935Z,-0.20
2022-12-12T14:54:46.709Z,-0.55
2022-12-12T14:57:35.529Z,-0.61
2022-12-12T15:00:25.536Z,-0.68
2022-12-12T15:03:14.725Z,-0.87
2022-12-12T15:06:30.934Z,-0.79
2022-12-12T15:09:24.535Z,-0.79
2022-12-12T15:12:18.760Z,-0.60
2022-12-12T15:15:23.028Z,-0.76
2022-12-12T15:18:13.076Z,-0.89
2022-12-12T15:21:01.183Z,-0.82
2022-12-12T15:23:49.109Z,-0.71
2022-12-12T15:26:37.097Z,-0.71
2022-12-12T15:29:27.074Z,-0.65
2022-12-12T15:32:20.522Z,-0.63
2022-12-12T15:35:18.104Z,-0.60
2022-12-12T15:38:12.620Z,-0.57
2022-12-12T15:41:06.645Z,-0.55
2022-12-12T15:43:58.002Z,-0.57
2022-12-12T15:46:47.399Z,-0.54
2022-12-12T15:49:40.305Z,-0.61
2022-12-12T15:52:30.273Z,-0.58
2022-12-12T15:55:24.832Z,-0.62
2022-12-12T15:58:29.170Z,-0.62
2022-12-12T16:01:22.274Z,-0.64
2022-12-12T16:04:23.748Z,-0.67
2022-12-12T16:07:22.301Z,-0.71
2022-12-12T16:10:29.565Z,-0.74
2022-12-12T16:13:26.276Z,-0.77
2022-12-12T16:16:37.407Z,-0.99
2022-12-12T16:19:37.927Z,-0.91
2022-12-12T16:22:33.649Z,-0.98
2022-12-12T16:25:23.612Z,-0.99
2022-12-12T16:28:24.975Z,-1.02
2022-12-12T16:31:18.399Z,-1.09
2022-12-12T16:34:06.540Z,-1.13
2022-12-12T16:36:54.490Z,-1.17
2022-12-12T16:39:42.548Z,-1.23
2022-12-12T16:42:30.856Z,-1.31
2022-12-12T16:45:20.452Z,-1.39
2022-12-12T16:48:15.884Z,-1.47
2022-12-12T16:51:06.210Z,-1.51
2022-12-12T16:53:54.386Z,-1.58
2022-12-12T16:56:42.485Z,-1.66
2022-12-12T16:59:30.527Z,-1.73
2022-12-12T17:02:22.793Z,-1.81
2022-12-12T17:05:18.439Z,-1.88
2022-12-12T17:08:06.847Z,-1.96
2022-12-12T17:11:09.916Z,-2.04
2022-12-12T17:13:58.986Z,-2.12
2022-12-12T17:16:46.843Z,-2.21
2022-12-12T17:19:36.233Z,-2.29
2022-12-12T17:22:24.162Z,-2.39
2022-12-12T17:25:12.431Z,-2.47
2022-12-12T17:28:01.112Z,-2.56
2022-12-12T17:30:50.849Z,-2.67
2022-12-12T17:33:49.473Z,-2.73
2022-12-12T17:36:39.596Z,-2.81
2022-12-12T17:39:27.425Z,-2.89
2022-12-12T17:42:15.498Z,-2.96
2022-12-12T17:45:03.430Z,-3.02
2022-12-12T17:47:53.328Z,-3.10
2022-12-12T17:50:42.028Z,-3.19
2022-12-12T17:53:36.620Z,-3.26
2022-12-12T17:56:29.993Z,-3.33
2022-12-12T17:59:21.428Z,-3.40
2022-12-12T18:02:13.223Z,-3.47
2022-12-12T18:05:04.134Z,-3.52
2022-12-12T18:07:51.854Z,-3.61
2022-12-12T18:10:41.311Z,-3.67
2022-12-12T18:13:29.525Z,-3.75
2022-12-12T18:16:36.479Z,-3.81
2022-12-12T18:19:27.198Z,-3.86
2022-12-12T18:22:15.002Z,-3.93
2022-12-12T18:25:03.164Z,-3.99
2022-12-12T18:28:01.322Z,-4.06
2022-12-12T18:30:51.133Z,-4.12
2022-12-12T18:33:39.166Z,-4.19
2022-12-12T18:36:30.033Z,-4.22
2022-12-12T18:39:18.343Z,-4.29
2022-12-12T18:42:06.651Z,-4.33
2022-12-12T18:44:56.055Z,-4.40
2022-12-12T18:47:47.727Z,-4.47
2022-12-12T18:50:35.651Z,-4.52
2022-12-12T18:53:23.879Z,-4.59
2022-12-12T18:56:14.876Z,-4.64
2022-12-12T18:59:04.409Z,-4.67
2022-12-12T19:01:53.951Z,-4.73
2022-12-12T19:04:44.258Z,-4.77
2022-12-12T19:07:32.448Z,-4.83
2022-12-12T19:10:20.345Z,-4.90
2022-12-12T19:13:08.177Z,-4.98
2022-12-12T19:15:57.915Z,-5.01
2022-12-12T19:18:47.887Z,-5.03
2022-12-12T19:21:36.397Z,-5.07
2022-12-12T19:24:24.199Z,-5.12
2022-12-12T19:27:12.491Z,-5.17
2022-12-12T19:30:00.499Z,-5.22
2022-12-12T19:32:49.080Z,-5.27
2022-12-12T19:35:39.463Z,-5.30
2022-12-12T19:38:27.433Z,-5.33
2022-12-12T19:41:17.010Z,-5.37
2022-12-12T19:44:08.782Z,-5.41
2022-12-12T19:46:56.994Z,-5.48
2022-12-12T19:49:44.730Z,-5.52
2022-12-12T19:52:34.190Z,-5.57
2022-12-12T19:55:21.920Z,-5.59
2022-12-12T19:58:10.035Z,-5.65
2022-12-12T20:00:58.085Z,-5.71
2022-12-12T20:03:50.895Z,-5.74
2022-12-12T20:06:45.548Z,-5.79
2022-12-12T20:09:36.943Z,-5.83
2022-12-12T20:12:24.806Z,-5.87
2022-12-12T20:15:12.985Z,-5.91
2022-12-12T20:18:02.118Z,-5.93
2022-12-12T20:20:53.766Z,-5.97
2022-12-12T20:23:47.025Z,-5.99
2022-12-12T20:26:36.677Z,-6.04
2022-12-12T20:29:24.611Z,-6.07
2022-12-12T20:32:13.756Z,-6.12
2022-12-12T20:35:01.721Z,-6.17
2022-12-12T20:37:49.818Z,-6.21
2022-12-12T20:40:40.658Z,-6.25
2022-12-12T20:43:30.827Z,-6.27
2022-12-12T20:46:21.464Z,-6.32
2022-12-12T20:49:11.836Z,-6.37
2022-12-12T20:51:59.952Z,-6.40
2022-12-12T20:54:48.092Z,-6.44
2022-12-12T20:57:36.018Z,-6.47
2022-12-12T21:00:26.667Z,-6.52
2022-12-12T21:03:14.822Z,-6.54
2022-12-12T21:06:02.921Z,-6.55
2022-12-12T21:08:52.155Z,-6.59
2022-12-12T21:11:42.639Z,-6.62
2022-12-12T21:14:32.933Z,-6.67
2022-12-12T21:17:22.449Z,-6.69
2022-12-12T21:20:10.870Z,-6.71
2022-12-12T21:22:59.392Z,-6.74
2022-12-12T21:25:47.081Z,-6.80
2022-12-12T21:28:35.384Z,-6.82
2022-12-12T21:31:25.563Z,-6.86
2022-12-12T21:34:16.479Z,-6.88
2022-12-12T21:37:04.133Z,-6.94
2022-12-12T21:39:54.599Z,-6.96
2022-12-12T21:42:42.366Z,-6.99
2022-12-12T21:45:30.590Z,-7.01
2022-12-12T21:48:18.529Z,-7.04
2022-12-12T21:51:10.597Z,-7.08
2022-12-12T21:53:58.381Z,-7.14
2022-12-12T21:56:46.980Z,-7.17
2022-12-12T21:59:37.289Z,-7.16
2022-12-12T22:02:25.291Z,-7.21
2022-12-12T22:05:13.405Z,-7.23
2022-12-12T22:08:03.858Z,-7.28
2022-12-12T22:10:54.483Z,-7.32
2022-12-12T22:13:43.517Z,-7.33
2022-12-12T22:16:33.682Z,-7.38
2022-12-12T22:19:21.797Z,-7.39
2022-12-12T22:22:09.511Z,-7.40
2022-12-12T22:24:58.895Z,-7.41
2022-12-12T22:27:46.512Z,-7.43
2022-12-12T22:30:34.567Z,-7.46
2022-12-12T22:33:22.835Z,-7.48
2022-12-12T22:36:12.718Z,-7.51
2022-12-12T22:39:01.653Z,-7.54
2022-12-12T22:41:53.555Z,-7.57
2022-12-12T22:44:41.530Z,-7.57
2022-12-12T22:47:29.548Z,-7.60
2022-12-12T22:50:18.090Z,-7.62
2022-12-12T22:53:06.195Z,-7.65
2022-12-12T22:55:54.054Z,-7.69
2022-12-12T22:58:43.989Z,-7.70
2022-12-12T23:01:32.491Z,-7.73
2022-12-12T23:04:20.553Z,-7.76
2022-12-12T23:07:08.388Z,-7.78
2022-12-12T23:09:58.933Z,-7.81
2022-12-12T23:12:47.078Z,-7.84
2022-12-12T23:15:42.375Z,-7.82
2022-12-12T23:18:30.343Z,-7.84
2022-12-12T23:21:20.912Z,-7.87
2022-12-12T23:24:09.659Z,-7.90
2022-12-12T23:26:57.673Z,-7.92
2022-12-12T23:29:46.296Z,-7.92
2022-12-12T23:32:35.925Z,-7.96
2022-12-12T23:35:24.005Z,-7.99
2022-12-12T23:38:11.946Z,-8.03
2022-12-12T23:41:04.669Z,-8.06
2022-12-12T23:43:52.751Z,-8.07
2022-12-12T23:46:41.023Z,-8.09
2022-12-12T23:49:30.314Z,-8.11
2022-12-12T23:52:18.300Z,-8.13
2022-12-12T23:55:10.096Z,-8.16
2022-12-12T23:57:58.145Z,-8.17
